»·PEaware :: N256Z 65S-KGTF

N256Z :: 65S-KGTF

FLIGHT INFORMATION

Flight Status: Arrived
Operator: Privately registered:
United States
More flights under this callsign
Pilot: Gregory A. (9731)
Aircraft: PIPER PA-46-500TP MALIBU MERIDIAN
(P46T)
More flights by this aircraft type
Origin: 65S Boundary Co
United States
Destination: KGTF Great Falls Intl
United States
More flights between these airports :: More routes between these airports
Route: +MLP317037
File this flight plan on PilotEdge
Remarks:
Altitude:
(Current/Filed)
270ft
Speed:
(Current/Filed)
260kts
Departed: 10-Aug-19 01:56 PM
Arrived: 10-Aug-19 03:27 PM
Distance/Time
Traveled:
211nm/1:31
Distance/Time
To Go:
Arrived

Flight Plot

Page will automatically refresh every two minutes.

Flight plan parsing failed; only flown route is shown


Map Options




Map Legend


Flown Route
Filed Route
Departure Airport
Arrival Airport
Navaid (VOR, NDB)
Fix

Horizontal Profiles

Position Reports

Time Latitude Longitude Heading Altitude Ground
Speed
10-Aug-19 13:39 48.729687 -116.292384 127 2337ft 0kts
10-Aug-19 13:40 48.729687 -116.292384 127 2337ft 0kts
10-Aug-19 13:41 48.729687 -116.292384 127 2337ft 0kts
10-Aug-19 13:42 48.729687 -116.292384 127 2337ft 0kts
10-Aug-19 13:43 48.729687 -116.292384 127 2337ft 0kts
10-Aug-19 13:44 48.729687 -116.292384 127 2337ft 0kts
10-Aug-19 13:45 48.729687 -116.292384 127 2337ft 0kts
10-Aug-19 13:46 48.729687 -116.292384 127 2337ft 0kts
10-Aug-19 13:47 48.729687 -116.292384 127 2337ft 0kts
10-Aug-19 13:48 48.729687 -116.292384 127 2337ft 0kts
10-Aug-19 13:49 48.729687 -116.292383 127 2337ft 0kts
10-Aug-19 13:50 48.729757 -116.292035 43 2337ft 6kts
10-Aug-19 13:51 48.730508 -116.290590 120 2337ft 0kts
10-Aug-19 13:52 48.730507 -116.290586 120 2337ft 0kts
10-Aug-19 13:53 48.730458 -116.290460 120 2337ft 3kts
10-Aug-19 13:54 48.730086 -116.290260 216 2337ft 1kts
10-Aug-19 13:55 48.714206 -116.308674 217 3182ft 113kts
10-Aug-19 13:56 48.681739 -116.345036 206 5017ft 163kts
10-Aug-19 13:57 48.639721 -116.366169 201 7814ft 151kts
10-Aug-19 13:58 48.599372 -116.384271 204 10550ft 160kts
10-Aug-19 13:59 48.555000 -116.405166 210 12973ft 171kts
10-Aug-19 14:11 48.729687 -116.292384 127 2337ft 0kts
10-Aug-19 14:12 48.729687 -116.292384 127 2337ft 0kts
10-Aug-19 14:13 48.730488 -116.291052 55 2337ft 7kts
10-Aug-19 14:14 48.730484 -116.290527 114 2337ft 0kts
10-Aug-19 14:15 48.730482 -116.290523 114 2337ft 0kts
10-Aug-19 14:16 48.730481 -116.290518 114 2337ft 0kts
10-Aug-19 14:17 48.730480 -116.290514 114 2337ft 0kts
10-Aug-19 14:18 48.730478 -116.290510 114 2337ft 0kts
10-Aug-19 14:19 48.729938 -116.290388 217 2337ft 0kts
10-Aug-19 14:20 48.724474 -116.297084 216 2374ft 74kts
10-Aug-19 14:21 48.697346 -116.329244 219 3702ft 164kts
10-Aug-19 14:23 48.620814 -116.374645 202 9283ft 144kts
10-Aug-19 14:24 48.579908 -116.393163 207 11710ft 157kts
10-Aug-19 14:25 48.536931 -116.415289 211 13608ft 175kts
10-Aug-19 14:26 48.489999 -116.442940 211 15217ft 182kts
10-Aug-19 14:27 48.439554 -116.428270 153 16820ft 224kts
10-Aug-19 14:28 48.390416 -116.370808 160 18429ft 226kts
10-Aug-19 14:29 48.334621 -116.327381 172 20052ft 223kts
10-Aug-19 14:30 48.277108 -116.296169 175 21651ft 220kts
10-Aug-19 14:31 48.221259 -116.248802 157 23261ft 238kts
10-Aug-19 14:32 48.170194 -116.186499 156 24854ft 233kts
10-Aug-19 14:33 48.118101 -116.134310 168 26455ft 216kts
10-Aug-19 14:34 48.062808 -116.099019 171 27381ft 232kts
10-Aug-19 14:35 48.019149 -116.014022 112 27404ft 306kts
10-Aug-19 14:36 48.000490 -115.887927 110 27407ft 312kts
10-Aug-19 14:37 47.981348 -115.761981 118 27411ft 306kts
10-Aug-19 14:38 47.953220 -115.642920 105 27399ft 315kts
10-Aug-19 14:39 47.945011 -115.511045 101 27314ft 318kts
10-Aug-19 14:40 47.938408 -115.379863 101 27310ft 317kts
10-Aug-19 14:41 47.932027 -115.249156 101 27301ft 316kts
10-Aug-19 14:42 47.911926 -115.126495 103 27296ft 312kts
10-Aug-19 14:43 47.905712 -114.997263 101 27281ft 313kts
10-Aug-19 14:44 47.900373 -114.867694 101 27267ft 312kts
10-Aug-19 14:45 47.893431 -114.739475 107 27256ft 307kts
10-Aug-19 14:46 47.879436 -114.614451 108 27246ft 305kts
10-Aug-19 14:47 47.865479 -114.489260 108 27237ft 305kts
10-Aug-19 14:48 47.851809 -114.364622 108 27232ft 305kts
10-Aug-19 14:49 47.838452 -114.240017 108 27230ft 305kts
10-Aug-19 14:50 47.823706 -114.115785 111 27219ft 303kts
10-Aug-19 14:51 47.808237 -113.992502 111 27189ft 303kts
10-Aug-19 14:52 47.792465 -113.869003 111 27184ft 303kts
10-Aug-19 14:53 47.776715 -113.746150 111 27181ft 302kts
10-Aug-19 14:54 47.760985 -113.623687 111 27177ft 301kts
10-Aug-19 14:55 47.745258 -113.501289 111 27134ft 298kts
10-Aug-19 14:56 47.729903 -113.382540 110 26134ft 291kts
10-Aug-19 14:58 47.713655 -113.265091 110 24937ft 290kts
10-Aug-19 14:59 47.696506 -113.148492 111 23736ft 287kts
10-Aug-19 15:00 47.679006 -113.033277 111 22559ft 281kts
10-Aug-19 15:01 47.663850 -112.925553 103 21563ft 268kts
10-Aug-19 15:02 47.659439 -112.814584 100 20567ft 268kts
10-Aug-19 15:03 47.655762 -112.704052 99 19571ft 268kts
10-Aug-19 15:04 47.650429 -112.593946 103 18454ft 256kts
10-Aug-19 15:05 47.645179 -112.497274 103 16849ft 220kts
10-Aug-19 15:06 47.640156 -112.408949 103 15250ft 211kts
10-Aug-19 15:07 47.632875 -112.323215 124 13642ft 199kts
10-Aug-19 15:08 47.597880 -112.264905 143 12076ft 191kts
10-Aug-19 15:09 47.560445 -112.210940 144 10514ft 186kts
10-Aug-19 15:10 47.523020 -112.158717 143 9139ft 174kts
10-Aug-19 15:11 47.488106 -112.110825 144 9071ft 174kts
10-Aug-19 15:12 47.450950 -112.060590 143 9075ft 189kts
10-Aug-19 15:13 47.412038 -112.008586 143 9069ft 189kts
10-Aug-19 15:14 47.373065 -111.956462 143 9060ft 191kts
10-Aug-19 15:15 47.334200 -111.904626 143 9062ft 188kts
10-Aug-19 15:15 47.301689 -111.861564 144 9062ft 188kts
10-Aug-19 15:17 47.256461 -111.801642 144 9064ft 187kts
10-Aug-19 15:18 47.232890 -111.737934 78 9075ft 201kts
10-Aug-19 15:18 47.255149 -111.678401 40 9062ft 200kts
10-Aug-19 15:20 47.310854 -111.627164 32 8467ft 206kts
10-Aug-19 15:20 47.340671 -111.578205 50 8121ft 189kts
10-Aug-19 15:21 47.373946 -111.521748 46 7513ft 153kts
10-Aug-19 15:23 47.406491 -111.473147 41 6080ft 147kts
10-Aug-19 15:23 47.431656 -111.438607 39 4818ft 151kts
10-Aug-19 15:24 47.460549 -111.396632 42 3855ft 136kts
10-Aug-19 15:25 47.481313 -111.366104 34 3681ft 46kts
10-Aug-19 15:26 47.483552 -111.360131 61 3681ft 11kts
10-Aug-19 15:27 47.482890 -111.358288 53 3681ft 0kts

Navigation Log

Ident Type
Flight plan parsing failed, navigation log unavailable